Latest Weather Observations for St Kilda Harbour RMYS

IDV60801

Issued at 3:32 pm EST Saturday 2 July 2022 (issued every 10 minutes, with the page automatically refreshed every 10 minutes)

About weather observations | Map of weather stations | Latest weather observations for VIC | Other Formats
Station Details ID: 086220 Name: ST KILDA HARBOUR - RMYS Lat: -37.86 Lon: 144.96 Height: 6.4 m
Data from the previous 72 hours. | See also: Recent months at St Kilda Harbour RMYS
Date/Time
EST
Temp
°C
App
Temp
°C
Dew
Point
°C
Rel
Hum
%
Delta-T
°C
Wind Press
QNH
hPa
Press
MSL
hPa
Rain since
9am
mm
Dir  Spd
km/h
Gust
km/h
Spd
kts
Gust
kts
02/03:30pm - - - - - S 20 24 11 13 - - -
02/03:00pm - - - - - S 22 24 12 13 - - -
02/02:30pm - - - - - SSW 24 28 13 15 - - -
02/02:00pm - - - - - S 28 32 15 17 - - -
02/01:30pm - - - - - S 22 26 12 14 - - -
02/01:00pm - - - - - S 19 22 10 12 - - -
02/12:30pm - - - - - S 20 24 11 13 - - -
02/12:00pm - - - - - SSW 15 19 8 10 - - -
02/11:30am - - - - - SSE 13 17 7 9 - - -
02/11:00am - - - - - S 19 22 10 12 - - -
02/10:30am - - - - - SSE 19 22 10 12 - - -
02/10:00am - - - - - SSE 11 15 6 8 - - -
02/09:30am - - - - - SE 9 13 5 7 - - -
02/09:00am - - - - - SE 9 13 5 7 - - -
02/08:30am - - - - - ESE 7 11 4 6 - - -
02/08:00am - - - - - ESE 7 9 4 5 - - -
02/07:30am - - - - - ESE 7 11 4 6 - - -
02/07:00am - - - - - SSE 17 20 9 11 - - -
02/06:30am - - - - - S 20 24 11 13 - - -
02/06:00am - - - - - S 20 24 11 13 - - -
02/05:30am - - - - - S 20 22 11 12 - - -
02/05:00am - - - - - S 19 22 10 12 - - -
02/04:30am - - - - - S 17 20 9 11 - - -
02/04:00am - - - - - SSW 19 22 10 12 - - -
02/03:30am - - - - - SSW 17 24 9 13 - - -
02/03:00am - - - - - S 15 17 8 9 - - -
02/02:30am - - - - - S 11 13 6 7 - - -
02/02:00am - - - - - SSE 11 15 6 8 - - -
02/01:30am - - - - - SSE 7 9 4 5 - - -
02/01:00am - - - - - SE 7 11 4 6 - - -
02/12:30am - - - - - SE 6 7 3 4 - - -
02/12:00am - - - - - SSE 9 11 5 6 - - -
 
Date/Time
EST
Temp
°C
App
Temp
°C
Dew
Point
°C
Rel
Hum
%
Delta-T
°C
Wind Press
QNH
hPa
Press
MSL
hPa
Rain since
9am
mm
Dir  Spd
km/h
Gust
km/h
Spd
kts
Gust
kts
01/11:30pm - - - - - SE 9 13 5 7 - - -
01/11:00pm - - - - - SSE 9 11 5 6 - - -
01/10:30pm - - - - - SSE 7 9 4 5 - - -
01/10:00pm - - - - - SE 6 7 3 4 - - -
01/09:30pm - - - - - SE 9 13 5 7 - - -
01/09:00pm - - - - - SE 13 17 7 9 - - -
01/08:30pm - - - - - SSE 15 19 8 10 - - -
01/08:00pm - - - - - SSE 13 15 7 8 - - -
01/07:30pm - - - - - SE 13 17 7 9 - - -
01/07:00pm - - - - - SSE 13 15 7 8 - - -
01/06:30pm - - - - - SSE 17 20 9 11 - - -
01/06:00pm - - - - - SSE 20 22 11 12 - - -
01/05:30pm - - - - - SSE 19 24 10 13 - - -
01/05:00pm - - - - - S 17 20 9 11 - - -
01/04:30pm - - - - - S 19 20 10 11 - - -
01/04:00pm - - - - - S 20 24 11 13 - - -
01/03:30pm - - - - - S 20 24 11 13 - - -
01/03:00pm - - - - - S 15 17 8 9 - - -
01/02:30pm - - - - - SSW 15 17 8 9 - - -
01/02:00pm - - - - - SSW 7 9 4 5 - - -
01/01:30pm - - - - - SSW 4 6 2 3 - - -
01/01:00pm - - - - - SW 4 6 2 3 - - -
01/12:30pm - - - - - W 4 6 2 3 - - -
01/12:00pm - - - - - WNW 4 6 2 3 - - -
01/11:30am - - - - - NNW 4 6 2 3 - - -
01/11:00am - - - - - N 6 7 3 4 - - -
01/10:30am - - - - - NE 7 9 4 5 - - -
01/10:00am - - - - - N 6 7 3 4 - - -
01/09:30am - - - - - NNE 2 4 1 2 - - -
01/09:00am - - - - - NNE 4 7 2 4 - - -
01/08:30am - - - - - N 7 9 4 5 - - -
01/08:00am - - - - - NNE 6 7 3 4 - - -
01/07:30am - - - - - NE 6 7 3 4 - - -
01/07:00am - - - - - NNE 6 7 3 4 - - -
01/06:30am - - - - - NNE 7 11 4 6 - - -
01/06:00am - - - - - NNE 4 6 2 3 - - -
01/05:30am - - - - - NNE 7 9 4 5 - - -
01/05:00am - - - - - NE 7 9 4 5 - - -
01/04:30am - - - - - NNE 4 6 2 3 - - -
01/04:00am - - - - - NE 6 7 3 4 - - -
01/03:30am - - - - - NNE 6 7 3 4 - - -
01/03:00am - - - - - SSE 4 7 2 4 - - -
01/02:30am - - - - - S 6 9 3 5 - - -
01/02:00am - - - - - N 2 6 1 3 - - -
01/01:30am - - - - - N 4 6 2 3 - - -
01/01:00am - - - - - NNW 4 6 2 3 - - -
01/12:30am - - - - - NNW 4 7 2 4 - - -
01/12:00am - - - - - NW 7 9 4 5 - - -
 
Date/Time
EST
Temp
°C
App
Temp
°C
Dew
Point
°C
Rel
Hum
%
Delta-T
°C
Wind Press
QNH
hPa
Press
MSL
hPa
Rain since
9am
mm
Dir  Spd
km/h
Gust
km/h
Spd
kts
Gust
kts
30/11:30pm - - - - - N 4 7 2 4 - - -
30/11:00pm - - - - - NNW 4 6 2 3 - - -
30/10:30pm - - - - - NNW 4 6 2 3 - - -
30/10:00pm - - - - - NW 7 9 4 5 - - -
30/09:30pm - - - - - N 6 6 3 3 - - -
30/09:00pm - - - - - NNE 4 6 2 3 - - -
30/08:30pm - - - - - ENE 4 4 2 2 - - -
30/08:00pm - - - - - CALM 0 2 0 1 - - -
30/07:30pm - - - - - NNE 2 4 1 2 - - -
30/07:00pm - - - - - CALM 0 2 0 1 - - -
30/06:30pm - - - - - NE 4 4 2 2 - - -
30/06:00pm - - - - - ESE 6 7 3 4 - - -
30/05:30pm - - - - - SSE 11 13 6 7 - - -
30/05:00pm - - - - - SSE 15 19 8 10 - - -
30/04:30pm - - - - - S 13 17 7 9 - - -
30/04:00pm - - - - - SSE 9 11 5 6 - - -
30/03:30pm - - - - - S 9 13 5 7 - - -
30/03:00pm - - - - - S 13 17 7 9 - - -
30/02:30pm - - - - - S 17 22 9 12 - - -
30/02:00pm - - - - - S 11 15 6 8 - - -
30/01:30pm - - - - - S 15 17 8 9 - - -
30/01:00pm - - - - - S 6 9 3 5 - - -
30/12:30pm - - - - - ESE 2 4 1 2 - - -
30/12:00pm - - - - - SSW 7 9 4 5 - - -
30/11:30am - - - - - SW 6 7 3 4 - - -
30/11:00am - - - - - W 7 9 4 5 - - -
30/10:30am - - - - - W 9 13 5 7 - - -
30/10:00am - - - - - N 7 11 4 6 - - -
30/09:30am - - - - - NNE 6 11 3 6 - - -
30/09:00am - - - - - N 6 13 3 7 - - -
30/08:30am - - - - - NW 4 9 2 5 - - -
30/08:00am - - - - - N 6 9 3 5 - - -
30/07:30am - - - - - N 4 7 2 4 - - -
30/07:00am - - - - - NNE 4 6 2 3 - - -
30/06:30am - - - - - NNE 2 2 1 1 - - -
30/06:00am - - - - - NNE 6 7 3 4 - - -
30/05:30am - - - - - NE 7 7 4 4 - - -
30/05:00am - - - - - W 9 13 5 7 - - -
30/04:30am - - - - - W 15 20 8 11 - - -
30/04:00am - - - - - NNE 9 13 5 7 - - -
30/03:30am - - - - - NNE 9 13 5 7 - - -
30/03:00am - - - - - NNE 11 15 6 8 - - -
30/02:30am - - - - - NNE 9 13 5 7 - - -
30/02:00am - - - - - N 13 20 7 11 - - -
30/01:30am - - - - - NNE 7 11 4 6 - - -
30/01:00am - - - - - N 15 22 8 12 - - -
30/12:30am - - - - - N 15 20 8 11 - - -
30/12:00am - - - - - N 17 24 9 13 - - -
 
Date/Time
EST
Temp
°C
App
Temp
°C
Dew
Point
°C
Rel
Hum
%
Delta-T
°C
Wind Press
QNH
hPa
Press
MSL
hPa
Rain since
9am
mm
Dir  Spd
km/h
Gust
km/h
Spd
kts
Gust
kts
29/11:30pm - - - - - N 24 33 13 18 - - -
29/11:00pm - - - - - N 20 33 11 18 - - -
29/10:30pm - - - - - NNE 19 30 10 16 - - -
29/10:00pm - - - - - N 22 32 12 17 - - -
29/09:30pm - - - - - N 20 32 11 17 - - -
29/09:00pm - - - - - N 22 33 12 18 - - -
29/08:30pm - - - - - N 20 30 11 16 - - -
29/08:00pm - - - - - NNW 17 26 9 14 - - -
29/07:30pm - - - - - N 15 22 8 12 - - -
29/07:00pm - - - - - N 7 9 4 5 - - -
29/06:30pm - - - - - NNE 9 17 5 9 - - -
29/06:00pm - - - - - N 11 19 6 10 - - -
29/05:30pm - - - - - NNE 19 30 10 16 - - -
29/05:00pm - - - - - NNE 22 32 12 17 - - -
29/04:30pm - - - - - NNE 22 33 12 18 - - -
29/04:00pm - - - - - N 19 32 10 17 - - -

Other formats

Comma delimited format used in spreadsheet applications
http://www.bom.gov.au/fwo/IDV60801/IDV60801.95864.axf

JavaScript Object Notation format (JSON) in row-major order
http://www.bom.gov.au/fwo/IDV60801/IDV60801.95864.json

Data quality

Most of these data are generated automatically and are frequently updated. Quality checks on data are not normally performed. It is possible for incorrect values to appear. Refer to information at About Latest Weather Observations and please check the disclaimer before using these data.